Time;durP1;ratioP1;P1;durP2;ratioP2;P2;SDS_P1;SDS_P2;PMS_P1;PMS_P2;Temp;Humidity;BMP_temperature;BMP_pressure;BME280_temperature;BME280_humidity;BME280_pressure;Samples;Min_cycle;Max_cycle;Signal;HPM_P1;HPM_P2
2021/04/18 00:01:59;;;;;;;2.80;2.30;;;;;;;17.65;56.47;100809.84;1789337;78;21151;-51
2021/04/18 00:04:26;;;;;;;3.65;2.35;;;;;;;17.63;56.47;100807.94;1787624;78;21182;-51
2021/04/18 00:06:52;;;;;;;2.80;2.30;;;;;;;17.62;56.51;100803.55;1789766;78;21140;-51
2021/04/18 00:09:19;;;;;;;3.52;2.50;;;;;;;17.60;56.50;100798.91;1789471;79;21138;-51
2021/04/18 00:11:45;;;;;;;3.30;2.50;;;;;;;17.58;56.54;100789.56;1792697;79;21187;-52
2021/04/18 00:14:12;;;;;;;2.87;2.27;;;;;;;17.58;56.58;100788.75;1789005;79;21203;-51
2021/04/18 00:16:39;;;;;;;2.50;2.17;;;;;;;17.57;56.58;100792.02;1791082;78;21150;-51
2021/04/18 00:19:06;;;;;;;3.25;2.33;;;;;;;17.57;56.60;100803.02;1786745;79;21169;-49
2021/04/18 00:21:32;;;;;;;3.08;2.05;;;;;;;17.58;56.63;100800.57;1790062;79;21102;-51
2021/04/18 00:23:59;;;;;;;2.92;2.10;;;;;;;17.57;56.60;100797.52;1789922;78;21563;-51
2021/04/18 00:26:26;;;;;;;2.45;2.25;;;;;;;17.58;56.59;100802.50;1789390;79;21173;-52
2021/04/18 00:28:52;;;;;;;2.83;2.40;;;;;;;17.57;56.60;100796.14;1788692;79;21569;-50
2021/04/18 00:31:19;;;;;;;2.50;2.17;;;;;;;17.56;56.61;100787.66;1792724;79;21150;-50
2021/04/18 00:33:46;;;;;;;2.62;2.27;;;;;;;17.55;56.60;100790.14;1784019;79;21599;-51
2021/04/18 00:36:13;;;;;;;2.85;2.05;;;;;;;17.54;56.63;100791.80;1778111;79;21612;-50
2021/04/18 00:38:39;;;;;;;3.05;2.37;;;;;;;17.52;56.64;100784.42;1774796;79;21147;-51
2021/04/18 00:41:06;;;;;;;3.62;2.62;;;;;;;17.49;56.68;100788.56;1779799;79;21202;-50
2021/04/18 00:43:33;;;;;;;3.85;2.47;;;;;;;17.49;56.71;100787.19;1775735;79;21103;-52
2021/04/18 00:45:59;;;;;;;3.45;2.12;;;;;;;17.49;56.73;100789.12;1780272;79;21630;-51
2021/04/18 00:48:26;;;;;;;3.37;2.50;;;;;;;17.49;56.74;100788.56;1779234;79;21226;-51
2021/04/18 00:50:53;;;;;;;2.80;2.27;;;;;;;17.50;56.72;100783.33;1778819;79;21196;-52
2021/04/18 00:53:19;;;;;;;3.20;2.45;;;;;;;17.50;56.71;100783.33;1776275;79;21182;-50
2021/04/18 00:55:46;;;;;;;2.90;2.25;;;;;;;17.50;56.73;100781.13;1780953;79;21230;-51
2021/04/18 00:58:13;;;;;;;3.05;2.02;;;;;;;17.50;56.72;100778.38;1758672;79;21193;-52
2021/04/18 01:00:39;;;;;;;3.35;2.58;;;;;;;17.49;56.72;100783.06;1780904;79;22148;-50
2021/04/18 01:03:07;;;;;;;2.65;2.30;;;;;;;17.48;56.75;100786.95;1777134;79;21588;-51
2021/04/18 01:05:34;;;;;;;3.30;2.47;;;;;;;17.48;56.75;100783.38;1779278;78;22731;-51
2021/04/18 01:08:01;;;;;;;3.75;2.67;;;;;;;17.46;56.76;100790.54;1773966;79;21120;-50
2021/04/18 01:10:28;;;;;;;2.30;2.10;;;;;;;17.44;56.78;100790.00;1774912;79;21202;-51
2021/04/18 01:12:54;;;;;;;2.20;2.00;;;;;;;17.43;56.83;100780.14;1775562;79;21546;-48
2021/04/18 01:15:21;;;;;;;2.62;2.22;;;;;;;17.38;56.85;100772.52;1778047;79;21128;-51
2021/04/18 01:17:47;;;;;;;2.80;2.15;;;;;;;17.45;56.85;100771.57;1731034;80;21161;-50
2021/04/18 01:20:21;;;;;;;2.60;2.10;;;;;;;17.46;56.84;100767.16;1739941;80;21131;-50
2021/04/18 01:22:49;;;;;;;2.45;2.05;;;;;;;17.46;56.83;100763.03;1743164;80;21278;-50
2021/04/18 01:25:16;;;;;;;2.85;2.17;;;;;;;17.47;56.82;100759.73;1734956;80;21398;-50
2021/04/18 01:27:45;;;;;;;3.22;2.25;;;;;;;17.46;56.81;100760.28;1716844;82;21220;-52
2021/04/18 01:30:19;;;;;;;2.62;2.17;;;;;;;17.46;56.82;100756.16;1716973;82;21217;-51
2021/04/18 01:32:49;;;;;;;2.62;1.98;;;;;;;17.44;56.79;100748.75;1712146;82;21187;-52
2021/04/18 01:35:16;;;;;;;3.70;2.40;;;;;;;17.43;56.64;100743.02;1716412;82;21249;-51
2021/04/18 01:37:42;;;;;;;3.58;2.30;;;;;;;17.40;56.83;100740.84;1716368;82;23549;-52
2021/04/18 01:40:16;;;;;;;3.08;2.35;;;;;;;17.40;56.85;100738.67;1718083;82;21237;-50
2021/04/18 01:42:42;;;;;;;2.90;2.17;;;;;;;17.39;56.91;100735.66;1721253;82;21426;-50
2021/04/18 01:45:10;;;;;;;3.75;2.17;;;;;;;17.39;56.91;100736.47;1721043;82;21624;-49
2021/04/18 01:47:38;;;;;;;2.55;1.92;;;;;;;17.39;56.92;100731.53;1733075;80;21166;-51
2021/04/18 01:50:07;;;;;;;3.27;2.27;;;;;;;17.40;56.92;100734.55;1713787;82;21164;-50
2021/04/18 01:52:34;;;;;;;2.47;2.05;;;;;;;17.40;56.92;100725.70;1714858;82;21275;-51
2021/04/18 01:55:01;;;;;;;2.75;2.08;;;;;;;17.41;56.92;100721.03;1724861;81;21155;-49
2021/04/18 01:57:28;;;;;;;3.27;2.08;;;;;;;17.41;56.90;100725.16;1740292;81;21149;-51
2021/04/18 01:59:54;;;;;;;3.15;1.90;;;;;;;17.44;56.92;100726.75;1779870;79;21106;-50
2021/04/18 02:02:21;;;;;;;2.85;1.90;;;;;;;17.47;57.00;100723.42;1778256;79;21196;-51
2021/04/18 02:04:48;;;;;;;2.87;1.80;;;;;;;17.51;57.16;100732.71;1777409;79;21131;-48
2021/04/18 02:07:15;;;;;;;3.80;2.52;;;;;;;17.53;57.30;100729.09;1774816;79;21116;-49
2021/04/18 02:09:42;;;;;;;3.20;2.17;;;;;;;17.56;57.42;100722.19;1777404;79;21242;-51
2021/04/18 02:12:10;;;;;;;3.47;2.58;;;;;;;17.55;57.44;100717.24;1775402;79;21134;-52
2021/04/18 02:14:37;;;;;;;2.95;2.42;;;;;;;17.58;57.41;100715.84;1779244;79;21188;-51
2021/04/18 02:17:04;;;;;;;2.80;2.02;;;;;;;17.60;57.32;100712.25;1781241;79;21079;-50
2021/04/18 02:19:32;;;;;;;2.45;2.00;;;;;;;17.61;57.27;100707.02;1782420;79;21134;-51
2021/04/18 02:21:58;;;;;;;2.27;1.87;;;;;;;17.62;57.16;100711.37;1775871;79;21149;-52
2021/04/18 02:24:25;;;;;;;4.15;1.95;;;;;;;17.63;57.07;100721.27;1784238;79;21175;-50
2021/04/18 02:26:52;;;;;;;3.75;2.02;;;;;;;17.63;57.00;100721.27;1782425;79;22159;-51
2021/04/18 02:29:18;;;;;;;3.62;2.27;;;;;;;17.62;56.92;100721.01;1781684;79;21174;-51
2021/04/18 02:31:45;;;;;;;5.12;2.45;;;;;;;17.61;56.88;100715.27;1775799;79;21152;-53
2021/04/18 02:34:12;;;;;;;2.65;2.17;;;;;;;17.59;56.82;100710.61;1778569;79;21302;-48
2021/04/18 02:36:39;;;;;;;3.02;2.20;;;;;;;17.57;56.80;100714.17;1758207;79;21155;-51
2021/04/18 02:39:06;;;;;;;3.67;2.20;;;;;;;17.55;56.81;100713.67;1760075;78;21204;-51
2021/04/18 02:41:33;;;;;;;2.92;2.37;;;;;;;17.53;56.82;100707.64;1757490;78;21168;-51
2021/04/18 02:43:59;;;;;;;2.47;1.90;;;;;;;17.50;56.81;100706.87;1757909;78;21144;-52
2021/04/18 02:46:26;;;;;;;2.87;2.02;;;;;;;17.49;56.82;100707.42;1761154;78;21193;-50
2021/04/18 02:48:53;;;;;;;3.35;2.22;;;;;;;17.48;56.82;100709.11;1724723;80;21238;-49
2021/04/18 02:51:20;;;;;;;3.98;2.30;;;;;;;17.47;56.80;100723.98;1711569;81;21276;-50
2021/04/18 02:53:46;;;;;;;3.05;2.02;;;;;;;17.42;56.80;100729.55;1767700;78;21156;-48
2021/04/18 02:56:13;;;;;;;2.27;2.08;;;;;;;17.45;56.81;100733.89;1752697;80;21001;-51
2021/04/18 02:58:42;;;;;;;2.75;2.25;;;;;;;17.45;56.79;100741.32;1755945;78;21490;-52
2021/04/18 03:01:08;;;;;;;2.95;2.10;;;;;;;17.42;57.00;100733.67;1752247;78;21191;-52
2021/04/18 03:03:35;;;;;;;4.05;2.45;;;;;;;17.41;56.82;100741.10;1752705;78;22342;-52
2021/04/18 03:06:02;;;;;;;3.12;2.37;;;;;;;17.40;56.81;100740.05;1747801;78;21888;-51
2021/04/18 03:08:29;;;;;;;2.75;2.15;;;;;;;17.38;56.83;100743.08;1755865;78;21258;-50
2021/04/18 03:10:56;;;;;;;3.60;2.50;;;;;;;17.36;56.86;100737.87;1757614;78;21254;-49
2021/04/18 03:13:23;;;;;;;2.67;2.10;;;;;;;17.34;56.90;100733.23;1757650;78;21425;-52
2021/04/18 03:15:49;;;;;;;3.50;2.58;;;;;;;17.35;56.92;100738.19;1759141;78;21452;-51
2021/04/18 03:18:16;;;;;;;2.90;2.27;;;;;;;17.31;56.84;100731.06;1755718;78;21195;-50
2021/04/18 03:20:43;;;;;;;2.92;2.10;;;;;;;17.31;56.84;100731.06;1758127;78;21040;-53
2021/04/18 03:23:09;;;;;;;3.10;2.22;;;;;;;17.34;56.92;100738.73;1758385;78;21144;-52
2021/04/18 03:25:36;;;;;;;3.02;2.30;;;;;;;17.33;56.94;100738.47;1761189;78;21200;-52
2021/04/18 03:28:04;;;;;;;3.10;2.33;;;;;;;17.34;56.95;100735.17;1756598;79;21261;-49
2021/04/18 03:30:32;;;;;;;2.85;2.02;;;;;;;17.33;56.94;100730.77;1755415;78;21152;-49
2021/04/18 03:32:59;;;;;;;2.75;2.35;;;;;;;17.31;56.96;100736.56;1754796;78;21672;-51
2021/04/18 03:35:26;;;;;;;3.62;2.22;;;;;;;17.31;56.96;100739.89;1771461;78;21211;-52
2021/04/18 03:37:53;;;;;;;3.30;2.42;;;;;;;17.29;56.97;100740.73;1776107;79;21059;-52
2021/04/18 03:40:20;;;;;;;4.30;2.30;;;;;;;17.28;56.82;100744.03;1776096;79;22556;-51
2021/04/18 03:42:47;;;;;;;2.77;1.98;;;;;;;17.26;56.94;100736.66;1778362;79;21155;-51
2021/04/18 03:45:15;;;;;;;3.40;2.45;;;;;;;17.22;57.03;100727.92;1778624;79;21154;-50
2021/04/18 03:47:43;;;;;;;3.00;2.30;;;;;;;17.27;57.06;100726.48;1775974;79;21207;-51
2021/04/18 03:50:11;;;;;;;3.72;2.22;;;;;;;17.27;57.06;100719.61;1777003;79;21514;-50
2021/04/18 03:52:38;;;;;;;2.90;2.08;;;;;;;17.27;57.06;100708.02;1777983;79;21513;-51
2021/04/18 03:55:06;;;;;;;2.90;2.30;;;;;;;17.27;57.06;100702.52;1776016;79;21589;-50
2021/04/18 03:57:33;;;;;;;2.95;2.22;;;;;;;17.26;57.06;100699.54;1774511;79;21125;-50
2021/04/18 03:59:59;;;;;;;4.28;2.45;;;;;;;17.27;57.07;100700.36;1775095;79;21139;-51
2021/04/18 04:02:26;;;;;;;2.75;2.33;;;;;;;17.26;57.06;100713.28;1773989;79;21578;-52
2021/04/18 04:04:53;;;;;;;4.47;2.30;;;;;;;17.26;57.08;100713.28;1776018;79;21201;-50
2021/04/18 04:07:19;;;;;;;3.12;2.50;;;;;;;17.25;57.07;100715.77;1777845;79;21170;-52
2021/04/18 04:09:45;;;;;;;3.05;2.40;;;;;;;17.26;57.09;100711.09;1778159;79;21188;-51
2021/04/18 04:12:12;;;;;;;3.55;2.65;;;;;;;17.27;57.10;100708.02;1783879;79;21158;-51
2021/04/18 04:14:39;;;;;;;2.72;2.15;;;;;;;17.30;57.12;100713.50;1777373;79;21152;-48
2021/04/18 04:17:06;;;;;;;3.33;2.02;;;;;;;17.34;57.12;100711.23;1778950;79;21225;-51
2021/04/18 04:19:32;;;;;;;2.62;1.75;;;;;;;17.41;57.09;100708.66;1777271;79;21194;-51
2021/04/18 04:21:59;;;;;;;3.77;2.10;;;;;;;17.46;57.05;100718.20;1783651;79;21175;-49
2021/04/18 04:24:25;;;;;;;4.50;2.10;;;;;;;17.49;56.98;100722.55;1780268;79;21204;-52
2021/04/18 04:26:52;;;;;;;3.10;2.00;;;;;;;17.54;56.96;100728.53;1777157;79;21164;-50
2021/04/18 04:29:18;;;;;;;3.02;1.77;;;;;;;17.61;56.94;100738.06;1776476;79;21640;-53
2021/04/18 04:31:45;;;;;;;2.47;1.90;;;;;;;17.68;57.01;100733.02;1776086;79;21137;-53
2021/04/18 04:34:11;;;;;;;2.98;1.75;;;;;;;17.75;57.13;100737.58;1780519;79;21120;-53
2021/04/18 04:36:38;;;;;;;2.60;1.80;;;;;;;17.84;57.28;100741.02;1777308;79;21146;-52
2021/04/18 04:39:06;;;;;;;3.30;2.10;;;;;;;17.90;57.36;100747.53;1777030;79;21453;-54
2021/04/18 04:41:33;;;;;;;2.65;1.90;;;;;;;17.96;57.38;100751.81;1767496;79;21186;-52
2021/04/18 04:44:00;;;;;;;4.12;2.10;;;;;;;18.02;57.29;100752.55;1774985;79;21190;-54
2021/04/18 04:46:26;;;;;;;3.90;2.00;;;;;;;18.08;57.20;100761.79;1774535;79;23089;-52
2021/04/18 04:48:53;;;;;;;3.15;2.02;;;;;;;18.14;57.07;100763.91;1772887;79;21652;-52
2021/04/18 04:51:19;;;;;;;2.75;1.60;;;;;;;18.19;56.95;100760.52;1778658;79;21158;-52
2021/04/18 04:53:46;;;;;;;2.35;1.65;;;;;;;18.23;56.83;100751.08;1780611;79;21198;-53
2021/04/18 04:56:12;;;;;;;2.05;1.60;;;;;;;18.26;56.71;100747.16;1775600;79;21622;-54
2021/04/18 04:58:39;;;;;;;2.70;1.70;;;;;;;18.29;56.64;100736.08;1776664;79;20995;-50
2021/04/18 05:01:06;;;;;;;2.45;1.80;;;;;;;18.31;56.53;100730.28;1780140;79;21082;-52
2021/04/18 05:03:32;;;;;;;2.80;2.00;;;;;;;18.32;56.49;100727.80;1777023;79;21380;-51
2021/04/18 05:05:59;;;;;;;2.10;1.60;;;;;;;18.33;56.43;100709.56;1777273;79;21262;-51
2021/04/18 05:08:26;;;;;;;3.30;1.72;;;;;;;18.33;56.39;100694.42;1776294;79;21473;-49
2021/04/18 05:10:52;;;;;;;3.05;1.90;;;;;;;18.34;56.35;100689.73;1774856;79;21120;-50
2021/04/18 05:13:19;;;;;;;3.30;1.87;;;;;;;18.33;56.33;100701.30;1774637;79;21162;-49
2021/04/18 05:15:46;;;;;;;3.08;1.75;;;;;;;18.34;56.31;100699.37;1776287;79;21208;-52
2021/04/18 05:18:12;;;;;;;2.25;1.65;;;;;;;18.33;56.29;100704.05;1777112;79;21253;-50
2021/04/18 05:20:39;;;;;;;3.02;1.90;;;;;;;18.36;56.30;100709.53;1772050;79;21558;-48
2021/04/18 05:23:06;;;;;;;2.37;1.70;;;;;;;18.39;56.26;100725.44;1770694;79;21176;-51
2021/04/18 05:25:32;;;;;;;2.92;1.87;;;;;;;18.41;56.26;100728.72;1774184;79;21166;-50
2021/04/18 05:27:59;;;;;;;2.22;1.55;;;;;;;18.41;56.23;100733.68;1777449;79;21459;-50
2021/04/18 05:30:26;;;;;;;3.42;1.80;;;;;;;18.44;56.20;100738.57;1775695;79;21541;-52
2021/04/18 05:32:53;;;;;;;2.08;1.62;;;;;;;18.45;56.20;100748.48;1777087;79;21577;-52
2021/04/18 05:35:20;;;;;;;2.60;1.50;;;;;;;18.47;56.20;100752.28;1777643;79;21150;-51
2021/04/18 05:37:46;;;;;;;2.72;1.70;;;;;;;18.48;56.20;100760.25;1777215;79;21159;-50
2021/04/18 05:40:14;;;;;;;2.58;1.60;;;;;;;18.50;56.20;100762.72;1778089;79;21639;-51
2021/04/18 05:42:40;;;;;;;3.77;1.82;;;;;;;18.51;56.18;100758.81;1782579;79;21662;-49
2021/04/18 05:45:09;;;;;;;2.37;1.75;;;;;;;18.51;56.18;100764.33;1779135;79;21135;-50
2021/04/18 05:47:36;;;;;;;2.60;1.60;;;;;;;18.52;56.20;100769.58;1775518;79;21199;-51
2021/04/18 05:50:04;;;;;;;1.90;1.45;;;;;;;18.52;56.21;100770.95;1775662;79;21202;-49
2021/04/18 05:52:31;;;;;;;2.27;1.40;;;;;;;18.53;56.24;100773.16;1777641;79;21052;-51
2021/04/18 05:54:57;;;;;;;2.85;1.72;;;;;;;18.53;56.23;100775.34;1780367;79;23524;-51
2021/04/18 05:57:24;;;;;;;3.05;1.70;;;;;;;18.55;56.22;100773.65;1774431;79;21614;-51
2021/04/18 05:59:51;;;;;;;2.40;1.67;;;;;;;18.55;56.22;100771.71;1780404;79;21132;-51
2021/04/18 06:02:17;;;;;;;2.50;1.70;;;;;;;18.57;56.21;100770.86;1781679;79;21126;-51
2021/04/18 06:04:44;;;;;;;2.22;1.72;;;;;;;18.57;56.23;100772.24;1725958;80;21175;-52
2021/04/18 06:07:11;;;;;;;2.02;1.60;;;;;;;18.58;56.22;100765.61;1726174;81;22072;-51
2021/04/18 06:09:38;;;;;;;2.77;1.67;;;;;;;18.61;56.21;100772.44;1727887;81;21156;-51
2021/04/18 06:12:06;;;;;;;2.30;1.70;;;;;;;18.59;56.22;100769.98;1722294;81;21104;-48
2021/04/18 06:14:32;;;;;;;2.37;1.62;;;;;;;18.63;56.26;100760.54;1779551;79;21047;-51
2021/04/18 06:16:59;;;;;;;2.10;1.50;;;;;;;18.66;56.35;100758.57;1779514;79;21168;-50
2021/04/18 06:19:26;;;;;;;2.30;1.37;;;;;;;18.69;56.50;100764.84;1775461;79;21625;-52
2021/04/18 06:21:55;;;;;;;2.62;1.50;;;;;;;18.71;56.66;100763.40;1773029;79;21131;-50
2021/04/18 06:24:22;;;;;;;2.15;1.90;;;;;;;18.75;56.78;100769.70;1759846;80;21510;-50
2021/04/18 06:26:48;;;;;;;2.40;1.65;;;;;;;18.77;56.80;100762.75;1736526;80;21006;-51
2021/04/18 06:29:15;;;;;;;1.85;1.62;;;;;;;18.79;56.72;100760.52;1708786;82;21131;-51
2021/04/18 06:31:43;;;;;;;2.40;1.60;;;;;;;18.82;56.65;100756.32;1726172;82;21230;-51
2021/04/18 06:34:10;;;;;;;2.45;1.80;;;;;;;18.84;56.54;100759.60;1715491;82;21227;-49
2021/04/18 06:36:37;;;;;;;2.35;1.80;;;;;;;18.83;56.44;100756.02;1727072;81;21179;-51
2021/04/18 06:39:04;;;;;;;2.10;1.77;;;;;;;18.83;56.36;100746.38;1729194;81;21186;-52
2021/04/18 06:41:31;;;;;;;3.20;1.82;;;;;;;18.82;56.29;100750.80;1775672;78;21122;-51
2021/04/18 06:43:57;;;;;;;2.70;1.80;;;;;;;18.79;56.23;100745.91;1772748;79;21356;-51
2021/04/18 06:46:24;;;;;;;3.60;1.85;;;;;;;18.77;56.22;100748.15;1774370;78;21151;-56
2021/04/18 06:48:51;;;;;;;4.17;2.00;;;;;;;18.74;56.20;100759.23;1781626;78;21139;-52
2021/04/18 06:51:18;;;;;;;3.65;2.00;;;;;;;18.69;56.19;100751.06;1777695;78;21527;-50
2021/04/18 06:53:47;;;;;;;4.40;2.00;;;;;;;18.67;56.20;100749.19;1774813;78;21549;-51
2021/04/18 06:56:14;;;;;;;3.05;2.22;;;;;;;18.63;56.21;100759.98;1780212;78;21198;-48
2021/04/18 06:58:40;;;;;;;4.53;2.42;;;;;;;18.60;56.20;100767.48;1777836;78;21166;-51
2021/04/18 07:01:07;;;;;;;2.83;2.00;;;;;;;18.58;56.24;100773.06;1778316;78;21126;-50
2021/04/18 07:03:33;;;;;;;2.15;1.72;;;;;;;18.57;56.27;100773.62;1778650;78;21182;-53
2021/04/18 07:06:00;;;;;;;2.58;1.72;;;;;;;18.55;56.26;100773.09;1785908;78;21232;-50
2021/04/18 07:08:33;;;;;;;3.25;2.10;;;;;;;18.53;56.26;100782.23;1770494;78;21052;-51
2021/04/18 07:13:54;;;;;;;2.77;2.10;;;;;;;18.53;56.31;100790.50;1843263;76;22815;-54
2021/04/18 07:16:28;;;;;;;3.42;2.08;;;;;;;18.45;56.32;100788.42;1810313;77;20941;-53
2021/04/18 07:18:55;;;;;;;2.83;1.80;;;;;;;18.43;56.34;100786.52;1808955;77;21588;-52
2021/04/18 07:21:22;;;;;;;2.50;1.75;;;;;;;18.41;56.38;100792.91;1814598;78;20894;-49
2021/04/18 07:23:48;;;;;;;3.22;2.17;;;;;;;18.38;56.43;100785.22;1808627;77;21130;-52
2021/04/18 07:26:27;;;;;;;2.67;1.85;;;;;;;18.36;56.46;100779.77;1806542;77;21462;-52
2021/04/18 07:29:14;;;;;;;2.90;2.20;;;;;;;18.34;56.49;100781.44;1750599;80;21161;-53
2021/04/18 07:31:41;;;;;;;3.15;2.30;;;;;;;18.32;56.54;100780.94;1749852;80;21166;-52
2021/04/18 07:34:13;;;;;;;3.47;2.10;;;;;;;18.31;56.58;100785.36;1751658;80;21929;-52
2021/04/18 07:36:42;;;;;;;2.87;2.02;;;;;;;18.31;56.60;100790.31;1745627;80;21035;-53
2021/04/18 07:39:10;;;;;;;3.72;2.17;;;;;;;18.30;56.63;100788.67;1752684;80;21158;-52
2021/04/18 07:41:39;;;;;;;4.08;2.37;;;;;;;18.30;56.63;100789.23;1753734;80;21212;-51
2021/04/18 07:44:08;;;;;;;3.83;2.15;;;;;;;18.29;56.66;100787.62;1758571;80;22103;-53
2021/04/18 07:46:34;;;;;;;3.05;2.27;;;;;;;18.29;56.66;100787.62;1751769;80;21219;-51
2021/04/18 07:49:00;;;;;;;2.25;1.82;;;;;;;18.26;56.68;100784.34;1757188;81;21131;-51
2021/04/18 07:51:27;;;;;;;2.95;2.25;;;;;;;18.25;56.70;100784.07;1752403;80;21300;-49
2021/04/18 07:53:53;;;;;;;2.70;1.95;;;;;;;18.23;56.75;100793.21;1716866;80;20995;-51
2021/04/18 07:56:20;;;;;;;4.67;2.30;;;;;;;18.21;56.75;100796.81;1752203;80;21639;-52
2021/04/18 07:58:46;;;;;;;3.08;2.12;;;;;;;18.22;56.80;100783.86;1778575;79;21375;-53
2021/04/18 08:01:13;;;;;;;3.02;2.05;;;;;;;18.23;56.93;100778.06;1760644;81;21225;-52
2021/04/18 08:03:42;;;;;;;3.40;2.10;;;;;;;18.26;57.08;100784.89;1763437;79;21474;-53
2021/04/18 08:06:09;;;;;;;3.62;2.00;;;;;;;18.29;57.26;100787.62;1758953;81;21215;-53
2021/04/18 08:08:52;;;;;;;4.12;2.52;;;;;;;18.31;57.37;100784.81;1763479;79;22116;-52
2021/04/18 08:11:21;;;;;;;4.67;2.10;;;;;;;18.35;57.40;100783.08;1739253;79;21159;-53
2021/04/18 08:13:50;;;;;;;2.92;1.98;;;;;;;18.35;57.34;100780.33;1759376;79;21176;-56
2021/04/18 08:16:29;;;;;;;3.80;2.33;;;;;;;18.39;57.26;100789.62;1761433;79;21449;-52
2021/04/18 08:19:15;;;;;;;3.25;2.20;;;;;;;18.38;57.17;100796.24;1757161;79;21184;-53
2021/04/18 08:21:43;;;;;;;3.47;2.20;;;;;;;18.38;57.08;100796.80;1735085;80;21201;-53
2021/04/18 08:24:24;;;;;;;3.83;2.55;;;;;;;18.35;56.99;100794.66;1751290;80;21236;-53
2021/04/18 08:27:06;;;;;;;3.45;2.45;;;;;;;18.33;56.95;100788.65;1764620;79;21521;-53
2021/04/18 08:29:37;;;;;;;3.52;2.20;;;;;;;18.30;56.90;100796.12;1760895;79;21217;-54
2021/04/18 08:32:09;;;;;;;6.30;2.20;;;;;;;18.26;56.86;100802.80;1732818;81;21230;-52
2021/04/18 08:34:38;;;;;;;3.58;2.42;;;;;;;18.23;56.87;100802.03;1751455;80;22085;-53
2021/04/18 08:37:09;;;;;;;3.60;2.45;;;;;;;18.22;56.87;100807.27;1755350;79;21215;-53
2021/04/18 08:39:37;;;;;;;3.67;2.33;;;;;;;18.20;56.87;100805.39;1757525;79;21196;-53
2021/04/18 08:42:06;;;;;;;2.92;2.20;;;;;;;18.19;56.89;100806.50;1754462;80;21332;-52
2021/04/18 08:44:42;;;;;;;2.77;2.33;;;;;;;18.19;56.86;100806.50;1762263;79;21223;-51
2021/04/18 08:47:19;;;;;;;4.17;2.25;;;;;;;18.18;56.84;100803.48;1761178;79;21577;-54
2021/04/18 08:49:57;;;;;;;3.20;2.25;;;;;;;18.16;56.84;100797.48;1761158;79;21073;-52
2021/04/18 08:52:25;;;;;;;3.52;2.10;;;;;;;18.14;56.84;100795.02;1748910;80;21149;-54
2021/04/18 08:54:57;;;;;;;2.87;2.40;;;;;;;18.12;56.86;100787.60;1758931;79;21403;-52
2021/04/18 08:57:28;;;;;;;3.92;2.47;;;;;;;18.11;56.86;100790.67;1760736;79;21244;-52
2021/04/18 09:00:02;;;;;;;3.50;2.65;;;;;;;18.08;56.88;100790.70;1760529;80;21204;-52
2021/04/18 09:02:29;;;;;;;3.20;2.50;;;;;;;18.06;56.88;100791.58;1761209;79;21193;-52
2021/04/18 09:04:58;;;;;;;4.22;2.40;;;;;;;18.04;56.89;100781.96;1755241;80;21452;-53
2021/04/18 09:07:30;;;;;;;3.22;2.35;;;;;;;18.04;56.94;100784.72;1759982;79;21126;-53
2021/04/18 09:10:04;;;;;;;4.22;2.27;;;;;;;18.03;56.94;100777.05;1764406;79;21079;-53
2021/04/18 09:12:32;;;;;;;4.17;2.90;;;;;;;18.03;56.95;100772.09;1758835;79;21261;-52
2021/04/18 09:14:59;;;;;;;3.17;2.35;;;;;;;18.02;56.94;100763.02;1752579;81;21506;-53
2021/04/18 09:17:30;;;;;;;4.08;2.37;;;;;;;18.03;56.95;100773.47;1759015;79;21129;-52
2021/04/18 09:20:09;;;;;;;4.83;2.58;;;;;;;18.03;56.95;100770.72;1761773;79;21181;-53
2021/04/18 09:22:40;;;;;;;3.15;2.25;;;;;;;18.02;56.95;100778.70;1760963;79;21589;-53
2021/04/18 09:25:15;;;;;;;3.35;2.20;;;;;;;18.01;56.95;100775.69;1799473;79;21230;-53
2021/04/18 09:27:51;;;;;;;4.72;2.70;;;;;;;18.01;56.96;100771.01;1800552;77;21022;-52
2021/04/18 09:30:21;;;;;;;4.20;2.52;;;;;;;18.01;56.95;100766.05;1808229;79;21568;-52
2021/04/18 09:32:50;;;;;;;3.65;2.83;;;;;;;18.00;56.97;100765.79;1802483;77;21139;-54
2021/04/18 09:35:18;;;;;;;4.12;2.50;;;;;;;18.01;56.98;100770.19;1804020;77;21141;-50
2021/04/18 09:38:00;;;;;;;3.75;2.52;;;;;;;18.00;56.99;100761.11;1804419;77;21622;-51
2021/04/18 09:40:32;;;;;;;3.60;2.60;;;;;;;17.99;56.98;100753.95;1802792;77;21221;-52
2021/04/18 09:43:00;;;;;;;2.83;2.10;;;;;;;18.00;56.99;100758.35;1749956;80;21169;-52
2021/04/18 09:45:29;;;;;;;3.42;2.40;;;;;;;18.00;56.98;100757.53;1774174;79;21789;-52
2021/04/18 09:48:00;;;;;;;4.12;2.77;;;;;;;17.99;57.00;100755.33;1776551;79;21135;-53
2021/04/18 09:50:33;;;;;;;2.95;2.45;;;;;;;17.99;56.99;100758.67;1742562;80;21519;-53
2021/04/18 09:53:21;;;;;;;3.60;2.42;;;;;;;17.99;57.00;100764.97;1750886;81;21651;-53
2021/04/18 09:56:00;;;;;;;3.90;2.58;;;;;;;17.98;56.99;100763.36;1751231;81;21480;-53
2021/04/18 09:58:38;;;;;;;3.08;2.35;;;;;;;17.95;56.96;100757.05;1753886;81;21231;-51
2021/04/18 10:01:07;;;;;;;4.28;2.90;;;;;;;17.94;57.00;100758.75;1753968;80;21252;-53
2021/04/18 10:03:37;;;;;;;4.28;2.65;;;;;;;17.92;57.01;100750.78;1750376;81;21225;-52
2021/04/18 10:06:04;;;;;;;3.62;2.47;;;;;;;17.90;57.03;100737.90;1750136;81;21121;-50
2021/04/18 10:08:33;;;;;;;3.27;2.52;;;;;;;17.89;57.05;100733.50;1755701;81;21516;-51
2021/04/18 10:11:15;;;;;;;4.00;2.47;;;;;;;17.89;57.06;100728.00;1755901;81;21251;-52
2021/04/18 10:13:51;;;;;;;4.65;2.60;;;;;;;17.90;57.06;100737.90;1752131;81;21161;-53
2021/04/18 10:16:24;;;;;;;3.45;2.50;;;;;;;17.89;57.08;100726.62;1756290;81;23664;-52
2021/04/18 10:19:14;;;;;;;4.83;2.67;;;;;;;17.90;57.06;100717.81;1751343;81;21316;-54
2021/04/18 10:21:43;;;;;;;3.47;2.25;;;;;;;17.89;57.06;100720.30;1757720;80;21176;-53
2021/04/18 10:24:41;;;;;;;4.95;2.40;;;;;;;17.88;57.06;100715.91;1753021;81;21599;-53
2021/04/18 10:27:09;;;;;;;4.25;2.55;;;;;;;17.87;57.07;100715.64;1750328;80;21157;-52
2021/04/18 10:29:36;;;;;;;3.40;2.60;;;;;;;17.85;57.05;100720.09;1755976;81;21210;-53
2021/04/18 10:32:04;;;;;;;2.80;2.20;;;;;;;17.82;56.85;100726.20;1755165;81;21262;-53
2021/04/18 10:34:30;;;;;;;4.97;2.58;;;;;;;17.82;56.85;100726.20;1753545;81;21175;-52
2021/04/18 10:36:57;;;;;;;3.65;2.12;;;;;;;17.83;57.11;100725.62;1757329;81;21229;-51
2021/04/18 10:39:24;;;;;;;3.12;2.55;;;;;;;17.83;57.11;100725.06;1752907;81;21118;-52
2021/04/18 10:41:51;;;;;;;3.67;2.37;;;;;;;17.84;57.12;100726.70;1804530;78;21199;-52
2021/04/18 10:44:17;;;;;;;3.70;2.40;;;;;;;17.85;57.11;100732.47;1804733;77;21185;-54
2021/04/18 10:46:45;;;;;;;3.50;2.72;;;;;;;17.86;57.10;100736.05;1811075;79;21134;-53
2021/04/18 10:49:11;;;;;;;2.90;2.17;;;;;;;17.87;57.09;100739.03;1804427;77;21526;-52
2021/04/18 10:51:38;;;;;;;3.15;2.05;;;;;;;17.86;57.07;100740.17;1803897;77;21126;-51
2021/04/18 10:54:05;;;;;;;2.77;2.02;;;;;;;17.85;57.07;100744.86;1809710;77;21252;-53
2021/04/18 10:56:31;;;;;;;3.65;2.65;;;;;;;17.84;57.07;100740.47;1810230;77;21207;-52
2021/04/18 10:58:59;;;;;;;3.17;2.42;;;;;;;17.84;57.08;100743.22;1807248;77;21239;-52
2021/04/18 11:01:25;;;;;;;2.80;2.22;;;;;;;17.82;57.07;100754.28;1746455;80;21177;-52
2021/04/18 11:03:54;;;;;;;3.10;2.47;;;;;;;17.81;57.05;100750.70;1759953;79;21653;-52
2021/04/18 11:06:20;;;;;;;4.10;2.80;;;;;;;17.81;57.08;100749.33;1803110;77;22280;-52
2021/04/18 11:08:47;;;;;;;3.65;2.62;;;;;;;17.80;57.08;100749.88;1806203;77;21095;-52
2021/04/18 11:11:14;;;;;;;3.05;2.17;;;;;;;17.81;57.08;100747.95;1802234;77;21131;-53
2021/04/18 11:13:40;;;;;;;3.72;3.30;;;;;;;17.83;57.06;100754.52;1806313;77;21202;-52
2021/04/18 11:16:07;;;;;;;2.80;2.33;;;;;;;17.85;57.04;100753.67;1804293;77;21178;-52
2021/04/18 11:18:34;;;;;;;3.83;2.37;;;;;;;17.84;57.03;100752.84;1809415;77;21195;-52
2021/04/18 11:21:00;;;;;;;4.45;2.45;;;;;;;17.82;57.00;100747.40;1808576;77;21164;-53
2021/04/18 11:23:27;;;;;;;3.67;2.50;;;;;;;17.83;56.97;100753.14;1805554;77;21142;-53
2021/04/18 11:25:54;;;;;;;3.45;2.35;;;;;;;17.82;56.97;100755.09;1746659;80;21148;-49
2021/04/18 11:28:20;;;;;;;4.33;2.37;;;;;;;17.82;56.97;100750.15;1763058;79;21162;-50
2021/04/18 11:30:47;;;;;;;2.67;2.35;;;;;;;17.81;56.97;100753.45;1763964;79;21180;-52
2021/04/18 11:33:13;;;;;;;3.40;2.35;;;;;;;17.79;56.94;100765.30;1810006;77;21145;-52